sensor_id;sensor_type;location;lat;lon;timestamp;P1;durP1;ratioP1;P2;durP2;ratioP2
72437;SDS011;60444;43.534;-5.674;2022-12-20T00:01:24;3.73;;;0.70;;
72437;SDS011;60444;43.534;-5.674;2022-12-20T00:03:52;3.28;;;0.93;;
72437;SDS011;60444;43.534;-5.674;2022-12-20T00:06:20;3.70;;;0.70;;
72437;SDS011;60444;43.534;-5.674;2022-12-20T00:08:46;4.25;;;1.10;;
72437;SDS011;60444;43.534;-5.674;2022-12-20T00:11:17;4.43;;;0.98;;
72437;SDS011;60444;43.534;-5.674;2022-12-20T00:13:44;4.00;;;1.03;;
72437;SDS011;60444;43.534;-5.674;2022-12-20T00:16:14;3.80;;;1.00;;
72437;SDS011;60444;43.534;-5.674;2022-12-20T00:18:42;5.07;;;1.50;;
72437;SDS011;60444;43.534;-5.674;2022-12-20T00:21:10;2.50;;;0.70;;
72437;SDS011;60444;43.534;-5.674;2022-12-20T00:23:37;3.58;;;0.90;;
72437;SDS011;60444;43.534;-5.674;2022-12-20T00:26:04;3.20;;;0.75;;
72437;SDS011;60444;43.534;-5.674;2022-12-20T00:28:33;3.75;;;0.90;;
72437;SDS011;60444;43.534;-5.674;2022-12-20T00:31:00;3.17;;;0.70;;
72437;SDS011;60444;43.534;-5.674;2022-12-20T00:33:27;3.55;;;0.80;;
72437;SDS011;60444;43.534;-5.674;2022-12-20T00:35:53;1.77;;;0.57;;
72437;SDS011;60444;43.534;-5.674;2022-12-20T00:38:23;2.80;;;0.80;;
72437;SDS011;60444;43.534;-5.674;2022-12-20T00:40:59;2.20;;;0.70;;
72437;SDS011;60444;43.534;-5.674;2022-12-20T00:43:28;3.03;;;0.70;;
72437;SDS011;60444;43.534;-5.674;2022-12-20T00:45:53;3.15;;;0.70;;
72437;SDS011;60444;43.534;-5.674;2022-12-20T00:48:19;3.33;;;0.73;;
72437;SDS011;60444;43.534;-5.674;2022-12-20T00:50:44;1.73;;;0.60;;
72437;SDS011;60444;43.534;-5.674;2022-12-20T00:53:10;2.47;;;0.70;;
72437;SDS011;60444;43.534;-5.674;2022-12-20T00:55:42;2.33;;;0.60;;
72437;SDS011;60444;43.534;-5.674;2022-12-20T00:58:11;1.95;;;0.50;;
72437;SDS011;60444;43.534;-5.674;2022-12-20T01:00:38;3.13;;;0.70;;
72437;SDS011;60444;43.534;-5.674;2022-12-20T01:03:03;2.45;;;0.63;;
72437;SDS011;60444;43.534;-5.674;2022-12-20T01:05:30;2.97;;;0.88;;
72437;SDS011;60444;43.534;-5.674;2022-12-20T01:07:55;2.80;;;0.60;;
72437;SDS011;60444;43.534;-5.674;2022-12-20T01:10:21;3.33;;;0.70;;
72437;SDS011;60444;43.534;-5.674;2022-12-20T01:12:46;2.55;;;0.63;;
72437;SDS011;60444;43.534;-5.674;2022-12-20T01:15:12;2.90;;;0.83;;
72437;SDS011;60444;43.534;-5.674;2022-12-20T01:17:38;3.17;;;0.70;;
72437;SDS011;60444;43.534;-5.674;2022-12-20T01:20:04;2.37;;;0.63;;
72437;SDS011;60444;43.534;-5.674;2022-12-20T01:22:32;2.72;;;0.75;;
72437;SDS011;60444;43.534;-5.674;2022-12-20T01:24:58;2.90;;;0.60;;
72437;SDS011;60444;43.534;-5.674;2022-12-20T01:27:24;2.47;;;0.70;;
72437;SDS011;60444;43.534;-5.674;2022-12-20T01:29:49;2.50;;;0.60;;
72437;SDS011;60444;43.534;-5.674;2022-12-20T01:32:15;2.28;;;0.60;;
72437;SDS011;60444;43.534;-5.674;2022-12-20T01:34:41;2.60;;;0.70;;
72437;SDS011;60444;43.534;-5.674;2022-12-20T01:37:06;2.40;;;0.60;;
72437;SDS011;60444;43.534;-5.674;2022-12-20T01:39:32;3.60;;;0.80;;
72437;SDS011;60444;43.534;-5.674;2022-12-20T01:41:57;3.13;;;0.93;;
72437;SDS011;60444;43.534;-5.674;2022-12-20T01:46:49;4.13;;;0.80;;
72437;SDS011;60444;43.534;-5.674;2022-12-20T01:51:57;2.88;;;0.98;;
72437;SDS011;60444;43.534;-5.674;2022-12-20T01:57:11;2.67;;;0.77;;
72437;SDS011;60444;43.534;-5.674;2022-12-20T01:59:39;3.03;;;0.73;;
72437;SDS011;60444;43.534;-5.674;2022-12-20T02:02:10;2.67;;;0.70;;
72437;SDS011;60444;43.534;-5.674;2022-12-20T02:04:37;2.08;;;0.45;;
72437;SDS011;60444;43.534;-5.674;2022-12-20T02:07:03;4.28;;;1.00;;
72437;SDS011;60444;43.534;-5.674;2022-12-20T02:09:29;2.07;;;0.60;;
72437;SDS011;60444;43.534;-5.674;2022-12-20T02:12:43;3.58;;;0.90;;
72437;SDS011;60444;43.534;-5.674;2022-12-20T02:14:53;3.72;;;0.90;;
72437;SDS011;60444;43.534;-5.674;2022-12-20T02:20:53;3.05;;;0.80;;
72437;SDS011;60444;43.534;-5.674;2022-12-20T02:28:52;3.80;;;1.08;;
72437;SDS011;60444;43.534;-5.674;2022-12-20T02:34:25;5.05;;;1.60;;
72437;SDS011;60444;43.534;-5.674;2022-12-20T02:36:53;4.50;;;1.10;;
72437;SDS011;60444;43.534;-5.674;2022-12-20T02:39:19;4.32;;;1.25;;
72437;SDS011;60444;43.534;-5.674;2022-12-20T02:41:56;4.93;;;1.33;;
72437;SDS011;60444;43.534;-5.674;2022-12-20T02:44:25;4.47;;;1.30;;
72437;SDS011;60444;43.534;-5.674;2022-12-20T02:47:13;5.15;;;1.20;;
72437;SDS011;60444;43.534;-5.674;2022-12-20T02:49:45;4.38;;;1.10;;
72437;SDS011;60444;43.534;-5.674;2022-12-20T02:52:13;3.85;;;1.05;;
72437;SDS011;60444;43.534;-5.674;2022-12-20T02:54:41;3.87;;;0.97;;
72437;SDS011;60444;43.534;-5.674;2022-12-20T02:57:20;1.98;;;0.50;;
72437;SDS011;60444;43.534;-5.674;2022-12-20T03:02:25;2.23;;;0.47;;
72437;SDS011;60444;43.534;-5.674;2022-12-20T03:04:51;2.33;;;0.45;;
72437;SDS011;60444;43.534;-5.674;2022-12-20T03:07:18;2.53;;;0.60;;
72437;SDS011;60444;43.534;-5.674;2022-12-20T03:09:44;2.53;;;0.67;;
72437;SDS011;60444;43.534;-5.674;2022-12-20T03:12:10;3.35;;;0.80;;
72437;SDS011;60444;43.534;-5.674;2022-12-20T03:14:37;4.13;;;1.00;;
72437;SDS011;60444;43.534;-5.674;2022-12-20T03:17:03;5.28;;;1.08;;
72437;SDS011;60444;43.534;-5.674;2022-12-20T03:19:29;4.57;;;1.17;;
72437;SDS011;60444;43.534;-5.674;2022-12-20T03:21:55;4.57;;;0.80;;
72437;SDS011;60444;43.534;-5.674;2022-12-20T03:24:21;5.47;;;1.00;;
72437;SDS011;60444;43.534;-5.674;2022-12-20T03:26:46;4.93;;;0.87;;
72437;SDS011;60444;43.534;-5.674;2022-12-20T03:29:15;4.88;;;1.40;;
72437;SDS011;60444;43.534;-5.674;2022-12-20T03:31:41;5.40;;;1.10;;
72437;SDS011;60444;43.534;-5.674;2022-12-20T03:34:06;5.22;;;1.20;;
72437;SDS011;60444;43.534;-5.674;2022-12-20T03:36:32;5.03;;;0.70;;
72437;SDS011;60444;43.534;-5.674;2022-12-20T03:38:58;4.45;;;0.80;;
72437;SDS011;60444;43.534;-5.674;2022-12-20T03:41:23;4.50;;;1.10;;
72437;SDS011;60444;43.534;-5.674;2022-12-20T03:43:49;5.90;;;1.05;;
72437;SDS011;60444;43.534;-5.674;2022-12-20T03:46:15;6.03;;;1.10;;
72437;SDS011;60444;43.534;-5.674;2022-12-20T03:48:42;5.80;;;1.20;;
72437;SDS011;60444;43.534;-5.674;2022-12-20T03:51:08;4.85;;;0.90;;
72437;SDS011;60444;43.534;-5.674;2022-12-20T03:53:34;5.22;;;1.10;;
72437;SDS011;60444;43.534;-5.674;2022-12-20T03:55:59;6.60;;;1.10;;
72437;SDS011;60444;43.534;-5.674;2022-12-20T03:58:25;5.23;;;0.93;;
72437;SDS011;60444;43.534;-5.674;2022-12-20T04:00:50;5.32;;;1.00;;
72437;SDS011;60444;43.534;-5.674;2022-12-20T04:03:16;4.30;;;1.00;;
72437;SDS011;60444;43.534;-5.674;2022-12-20T04:05:42;6.47;;;0.93;;
72437;SDS011;60444;43.534;-5.674;2022-12-20T04:08:07;4.97;;;1.30;;
72437;SDS011;60444;43.534;-5.674;2022-12-20T04:10:33;3.80;;;0.90;;
72437;SDS011;60444;43.534;-5.674;2022-12-20T04:13:18;3.70;;;0.83;;
72437;SDS011;60444;43.534;-5.674;2022-12-20T04:15:44;4.57;;;1.15;;
72437;SDS011;60444;43.534;-5.674;2022-12-20T04:18:09;3.87;;;0.90;;
72437;SDS011;60444;43.534;-5.674;2022-12-20T04:20:35;4.20;;;0.70;;
72437;SDS011;60444;43.534;-5.674;2022-12-20T04:23:00;6.00;;;1.00;;
72437;SDS011;60444;43.534;-5.674;2022-12-20T04:25:26;4.77;;;0.90;;
72437;SDS011;60444;43.534;-5.674;2022-12-20T04:27:51;5.10;;;1.13;;
72437;SDS011;60444;43.534;-5.674;2022-12-20T04:30:17;5.17;;;1.40;;
72437;SDS011;60444;43.534;-5.674;2022-12-20T04:32:42;5.72;;;1.08;;
72437;SDS011;60444;43.534;-5.674;2022-12-20T04:35:08;5.03;;;1.30;;
72437;SDS011;60444;43.534;-5.674;2022-12-20T04:37:34;4.95;;;1.10;;
72437;SDS011;60444;43.534;-5.674;2022-12-20T04:39:59;4.07;;;1.00;;
72437;SDS011;60444;43.534;-5.674;2022-12-20T04:42:25;8.60;;;1.77;;
72437;SDS011;60444;43.534;-5.674;2022-12-20T04:44:50;4.43;;;1.40;;
72437;SDS011;60444;43.534;-5.674;2022-12-20T04:47:16;4.47;;;1.20;;
72437;SDS011;60444;43.534;-5.674;2022-12-20T04:49:41;5.40;;;1.50;;
72437;SDS011;60444;43.534;-5.674;2022-12-20T04:52:07;4.80;;;1.30;;
72437;SDS011;60444;43.534;-5.674;2022-12-20T04:54:51;5.20;;;1.20;;
72437;SDS011;60444;43.534;-5.674;2022-12-20T04:57:16;4.57;;;0.83;;
72437;SDS011;60444;43.534;-5.674;2022-12-20T04:59:42;4.70;;;1.10;;
72437;SDS011;60444;43.534;-5.674;2022-12-20T05:02:07;4.90;;;1.55;;
72437;SDS011;60444;43.534;-5.674;2022-12-20T05:04:33;6.23;;;1.10;;
72437;SDS011;60444;43.534;-5.674;2022-12-20T05:06:58;4.70;;;1.13;;
72437;SDS011;60444;43.534;-5.674;2022-12-20T05:09:24;5.83;;;1.27;;
72437;SDS011;60444;43.534;-5.674;2022-12-20T05:11:49;4.47;;;0.93;;
72437;SDS011;60444;43.534;-5.674;2022-12-20T05:14:15;5.23;;;0.90;;
72437;SDS011;60444;43.534;-5.674;2022-12-20T05:16:40;5.95;;;1.20;;
72437;SDS011;60444;43.534;-5.674;2022-12-20T05:19:06;4.60;;;0.97;;
72437;SDS011;60444;43.534;-5.674;2022-12-20T05:21:31;7.10;;;1.43;;
72437;SDS011;60444;43.534;-5.674;2022-12-20T05:24:16;7.63;;;1.45;;
72437;SDS011;60444;43.534;-5.674;2022-12-20T05:26:59;7.18;;;1.10;;
72437;SDS011;60444;43.534;-5.674;2022-12-20T05:29:25;4.57;;;1.27;;
72437;SDS011;60444;43.534;-5.674;2022-12-20T05:31:50;5.70;;;1.20;;
72437;SDS011;60444;43.534;-5.674;2022-12-20T05:34:16;5.77;;;1.57;;
72437;SDS011;60444;43.534;-5.674;2022-12-20T05:36:42;7.80;;;1.50;;
72437;SDS011;60444;43.534;-5.674;2022-12-20T05:39:07;4.88;;;1.40;;
72437;SDS011;60444;43.534;-5.674;2022-12-20T05:41:33;4.80;;;1.07;;
72437;SDS011;60444;43.534;-5.674;2022-12-20T05:43:58;5.60;;;1.50;;
72437;SDS011;60444;43.534;-5.674;2022-12-20T05:46:24;7.93;;;1.97;;
72437;SDS011;60444;43.534;-5.674;2022-12-20T05:48:50;7.90;;;1.80;;
72437;SDS011;60444;43.534;-5.674;2022-12-20T05:51:16;6.63;;;2.00;;
72437;SDS011;60444;43.534;-5.674;2022-12-20T05:53:41;8.88;;;2.25;;
72437;SDS011;60444;43.534;-5.674;2022-12-20T05:56:07;6.10;;;2.00;;
72437;SDS011;60444;43.534;-5.674;2022-12-20T05:58:32;7.47;;;1.63;;
72437;SDS011;60444;43.534;-5.674;2022-12-20T06:01:02;5.78;;;1.55;;
72437;SDS011;60444;43.534;-5.674;2022-12-20T06:03:29;4.17;;;1.30;;
72437;SDS011;60444;43.534;-5.674;2022-12-20T06:05:55;5.40;;;1.30;;
72437;SDS011;60444;43.534;-5.674;2022-12-20T06:08:21;5.10;;;1.45;;
72437;SDS011;60444;43.534;-5.674;2022-12-20T06:10:47;5.60;;;1.80;;
72437;SDS011;60444;43.534;-5.674;2022-12-20T06:13:13;5.00;;;1.42;;
72437;SDS011;60444;43.534;-5.674;2022-12-20T06:15:39;4.63;;;1.45;;
72437;SDS011;60444;43.534;-5.674;2022-12-20T06:18:05;4.90;;;1.30;;
72437;SDS011;60444;43.534;-5.674;2022-12-20T06:20:31;5.63;;;1.10;;
72437;SDS011;60444;43.534;-5.674;2022-12-20T06:22:57;5.28;;;1.10;;
72437;SDS011;60444;43.534;-5.674;2022-12-20T06:25:23;4.43;;;1.60;;
72437;SDS011;60444;43.534;-5.674;2022-12-20T06:27:48;5.47;;;1.47;;
72437;SDS011;60444;43.534;-5.674;2022-12-20T06:30:14;4.90;;;1.33;;
72437;SDS011;60444;43.534;-5.674;2022-12-20T06:32:40;4.10;;;1.10;;
72437;SDS011;60444;43.534;-5.674;2022-12-20T06:35:06;3.80;;;0.70;;
72437;SDS011;60444;43.534;-5.674;2022-12-20T06:37:32;3.88;;;1.23;;
72437;SDS011;60444;43.534;-5.674;2022-12-20T06:39:57;4.60;;;1.30;;
72437;SDS011;60444;43.534;-5.674;2022-12-20T06:42:24;5.68;;;0.85;;
72437;SDS011;60444;43.534;-5.674;2022-12-20T06:44:49;6.80;;;1.57;;
72437;SDS011;60444;43.534;-5.674;2022-12-20T06:47:15;6.80;;;1.40;;
72437;SDS011;60444;43.534;-5.674;2022-12-20T06:49:40;7.57;;;1.83;;
72437;SDS011;60444;43.534;-5.674;2022-12-20T06:52:06;5.78;;;1.65;;
72437;SDS011;60444;43.534;-5.674;2022-12-20T06:54:31;5.60;;;1.33;;
72437;SDS011;60444;43.534;-5.674;2022-12-20T06:56:57;7.80;;;1.50;;
72437;SDS011;60444;43.534;-5.674;2022-12-20T06:59:22;5.97;;;1.70;;
72437;SDS011;60444;43.534;-5.674;2022-12-20T07:01:48;5.50;;;1.17;;
72437;SDS011;60444;43.534;-5.674;2022-12-20T07:04:13;4.87;;;0.97;;
72437;SDS011;60444;43.534;-5.674;2022-12-20T07:06:39;4.85;;;1.40;;
72437;SDS011;60444;43.534;-5.674;2022-12-20T07:09:04;5.50;;;1.50;;
72437;SDS011;60444;43.534;-5.674;2022-12-20T07:11:30;5.17;;;1.40;;
72437;SDS011;60444;43.534;-5.674;2022-12-20T07:13:56;4.13;;;1.35;;
72437;SDS011;60444;43.534;-5.674;2022-12-20T07:16:22;4.93;;;1.00;;
72437;SDS011;60444;43.534;-5.674;2022-12-20T07:18:50;4.53;;;1.20;;
72437;SDS011;60444;43.534;-5.674;2022-12-20T07:21:16;4.80;;;1.17;;
72437;SDS011;60444;43.534;-5.674;2022-12-20T07:23:43;5.97;;;1.60;;
72437;SDS011;60444;43.534;-5.674;2022-12-20T07:26:09;4.28;;;1.00;;
72437;SDS011;60444;43.534;-5.674;2022-12-20T07:28:35;5.57;;;1.50;;
72437;SDS011;60444;43.534;-5.674;2022-12-20T07:31:01;7.63;;;1.60;;
72437;SDS011;60444;43.534;-5.674;2022-12-20T07:33:28;5.75;;;1.13;;
72437;SDS011;60444;43.534;-5.674;2022-12-20T07:36:01;3.78;;;0.98;;
72437;SDS011;60444;43.534;-5.674;2022-12-20T07:38:28;3.95;;;0.70;;
72437;SDS011;60444;43.534;-5.674;2022-12-20T07:40:54;4.57;;;1.17;;
72437;SDS011;60444;43.534;-5.674;2022-12-20T07:43:20;5.15;;;1.33;;
72437;SDS011;60444;43.534;-5.674;2022-12-20T07:45:45;5.43;;;1.20;;
72437;SDS011;60444;43.534;-5.674;2022-12-20T07:48:11;5.60;;;1.20;;
72437;SDS011;60444;43.534;-5.674;2022-12-20T07:50:37;3.63;;;0.90;;
72437;SDS011;60444;43.534;-5.674;2022-12-20T07:53:05;5.95;;;1.02;;
72437;SDS011;60444;43.534;-5.674;2022-12-20T07:55:33;3.63;;;0.90;;
72437;SDS011;60444;43.534;-5.674;2022-12-20T07:58:02;5.10;;;1.33;;
72437;SDS011;60444;43.534;-5.674;2022-12-20T08:00:30;5.93;;;1.00;;
72437;SDS011;60444;43.534;-5.674;2022-12-20T08:03:01;5.93;;;1.60;;
72437;SDS011;60444;43.534;-5.674;2022-12-20T08:05:41;5.65;;;1.13;;
72437;SDS011;60444;43.534;-5.674;2022-12-20T08:08:11;4.80;;;1.40;;
72437;SDS011;60444;43.534;-5.674;2022-12-20T08:10:37;4.75;;;1.40;;
72437;SDS011;60444;43.534;-5.674;2022-12-20T08:13:03;8.73;;;2.78;;
72437;SDS011;60444;43.534;-5.674;2022-12-20T08:15:30;8.40;;;2.03;;
72437;SDS011;60444;43.534;-5.674;2022-12-20T08:17:59;9.75;;;3.42;;
72437;SDS011;60444;43.534;-5.674;2022-12-20T08:20:25;6.22;;;1.40;;
72437;SDS011;60444;43.534;-5.674;2022-12-20T08:22:50;15.20;;;4.87;;
72437;SDS011;60444;43.534;-5.674;2022-12-20T08:25:16;6.53;;;1.80;;
72437;SDS011;60444;43.534;-5.674;2022-12-20T08:27:41;7.07;;;1.70;;
72437;SDS011;60444;43.534;-5.674;2022-12-20T08:30:07;6.33;;;1.43;;
72437;SDS011;60444;43.534;-5.674;2022-12-20T08:32:35;3.90;;;0.85;;
72437;SDS011;60444;43.534;-5.674;2022-12-20T08:35:00;3.20;;;0.82;;
72437;SDS011;60444;43.534;-5.674;2022-12-20T08:37:26;3.97;;;0.80;;
72437;SDS011;60444;43.534;-5.674;2022-12-20T08:39:51;3.30;;;0.90;;
72437;SDS011;60444;43.534;-5.674;2022-12-20T08:42:17;4.17;;;1.00;;
72437;SDS011;60444;43.534;-5.674;2022-12-20T08:44:43;3.10;;;0.60;;
72437;SDS011;60444;43.534;-5.674;2022-12-20T08:47:08;3.22;;;0.80;;
72437;SDS011;60444;43.534;-5.674;2022-12-20T08:49:34;4.63;;;0.90;;
72437;SDS011;60444;43.534;-5.674;2022-12-20T08:52:03;3.37;;;0.77;;
72437;SDS011;60444;43.534;-5.674;2022-12-20T08:54:28;3.25;;;0.80;;
72437;SDS011;60444;43.534;-5.674;2022-12-20T08:56:54;2.80;;;0.70;;
72437;SDS011;60444;43.534;-5.674;2022-12-20T08:59:20;2.57;;;0.70;;
72437;SDS011;60444;43.534;-5.674;2022-12-20T09:01:45;2.58;;;0.63;;
72437;SDS011;60444;43.534;-5.674;2022-12-20T09:04:11;5.30;;;0.90;;
72437;SDS011;60444;43.534;-5.674;2022-12-20T09:06:37;3.13;;;0.60;;
72437;SDS011;60444;43.534;-5.674;2022-12-20T09:09:03;6.27;;;0.90;;
72437;SDS011;60444;43.534;-5.674;2022-12-20T09:11:29;6.05;;;1.15;;
72437;SDS011;60444;43.534;-5.674;2022-12-20T09:13:55;5.25;;;0.95;;
72437;SDS011;60444;43.534;-5.674;2022-12-20T09:16:23;5.57;;;0.60;;
72437;SDS011;60444;43.534;-5.674;2022-12-20T09:18:52;3.85;;;0.77;;
72437;SDS011;60444;43.534;-5.674;2022-12-20T09:21:19;5.65;;;1.15;;
72437;SDS011;60444;43.534;-5.674;2022-12-20T09:23:45;4.15;;;0.73;;
72437;SDS011;60444;43.534;-5.674;2022-12-20T09:26:14;6.00;;;1.20;;
72437;SDS011;60444;43.534;-5.674;2022-12-20T09:28:41;4.67;;;1.13;;
72437;SDS011;60444;43.534;-5.674;2022-12-20T09:31:07;3.75;;;0.80;;
72437;SDS011;60444;43.534;-5.674;2022-12-20T09:33:36;3.03;;;0.90;;
72437;SDS011;60444;43.534;-5.674;2022-12-20T09:36:02;5.33;;;0.67;;
72437;SDS011;60444;43.534;-5.674;2022-12-20T09:38:28;3.92;;;0.88;;
72437;SDS011;60444;43.534;-5.674;2022-12-20T09:40:57;3.55;;;0.90;;
72437;SDS011;60444;43.534;-5.674;2022-12-20T09:43:26;3.92;;;0.75;;
72437;SDS011;60444;43.534;-5.674;2022-12-20T09:45:53;5.33;;;0.67;;
72437;SDS011;60444;43.534;-5.674;2022-12-20T09:54:23;2.70;;;0.80;;
72437;SDS011;60444;43.534;-5.674;2022-12-20T09:57:43;3.20;;;0.63;;
72437;SDS011;60444;43.534;-5.674;2022-12-20T10:00:20;2.67;;;0.60;;
72437;SDS011;60444;43.534;-5.674;2022-12-20T10:02:46;3.47;;;0.63;;
72437;SDS011;60444;43.534;-5.674;2022-12-20T10:05:14;3.97;;;0.90;;
72437;SDS011;60444;43.534;-5.674;2022-12-20T10:07:58;4.07;;;0.93;;
72437;SDS011;60444;43.534;-5.674;2022-12-20T10:13:20;4.67;;;1.50;;
72437;SDS011;60444;43.534;-5.674;2022-12-20T10:16:02;4.68;;;1.00;;
72437;SDS011;60444;43.534;-5.674;2022-12-20T10:21:20;5.90;;;1.48;;
72437;SDS011;60444;43.534;-5.674;2022-12-20T10:24:01;5.85;;;1.92;;
72437;SDS011;60444;43.534;-5.674;2022-12-20T10:26:29;5.43;;;2.03;;
72437;SDS011;60444;43.534;-5.674;2022-12-20T10:28:57;7.32;;;2.03;;
72437;SDS011;60444;43.534;-5.674;2022-12-20T10:31:22;6.65;;;2.22;;
72437;SDS011;60444;43.534;-5.674;2022-12-20T10:33:49;7.83;;;2.70;;
72437;SDS011;60444;43.534;-5.674;2022-12-20T10:36:25;8.63;;;3.45;;
72437;SDS011;60444;43.534;-5.674;2022-12-20T10:38:52;11.68;;;4.78;;
72437;SDS011;60444;43.534;-5.674;2022-12-20T10:41:21;12.45;;;4.03;;
72437;SDS011;60444;43.534;-5.674;2022-12-20T10:43:58;13.00;;;4.75;;
72437;SDS011;60444;43.534;-5.674;2022-12-20T10:46:37;11.07;;;5.03;;
72437;SDS011;60444;43.534;-5.674;2022-12-20T10:49:34;14.48;;;4.57;;
72437;SDS011;60444;43.534;-5.674;2022-12-20T10:54:37;9.98;;;3.55;;
72437;SDS011;60444;43.534;-5.674;2022-12-20T10:57:17;9.88;;;3.15;;
72437;SDS011;60444;43.534;-5.674;2022-12-20T10:59:53;7.60;;;2.57;;
72437;SDS011;60444;43.534;-5.674;2022-12-20T11:02:41;8.77;;;2.45;;
72437;SDS011;60444;43.534;-5.674;2022-12-20T11:07:35;6.95;;;2.20;;
72437;SDS011;60444;43.534;-5.674;2022-12-20T11:12:54;10.07;;;2.43;;
72437;SDS011;60444;43.534;-5.674;2022-12-20T11:15:22;7.20;;;1.92;;
72437;SDS011;60444;43.534;-5.674;2022-12-20T11:17:50;5.30;;;1.92;;
72437;SDS011;60444;43.534;-5.674;2022-12-20T11:42:15;8.02;;;2.53;;
72437;SDS011;60444;43.534;-5.674;2022-12-20T11:45:03;7.40;;;1.97;;
72437;SDS011;60444;43.534;-5.674;2022-12-20T11:56:09;6.30;;;2.00;;
72437;SDS011;60444;43.534;-5.674;2022-12-20T12:01:18;8.07;;;2.15;;
72437;SDS011;60444;43.534;-5.674;2022-12-20T12:03:58;6.80;;;2.05;;
72437;SDS011;60444;43.534;-5.674;2022-12-20T12:06:30;9.23;;;2.50;;
72437;SDS011;60444;43.534;-5.674;2022-12-20T12:12:03;9.03;;;4.30;;
72437;SDS011;60444;43.534;-5.674;2022-12-20T12:20:05;17.13;;;9.43;;
72437;SDS011;60444;43.534;-5.674;2022-12-20T12:22:39;15.95;;;8.30;;
72437;SDS011;60444;43.534;-5.674;2022-12-20T12:25:08;13.03;;;7.10;;
72437;SDS011;60444;43.534;-5.674;2022-12-20T12:27:38;11.02;;;5.95;;
72437;SDS011;60444;43.534;-5.674;2022-12-20T12:30:04;9.75;;;4.20;;
72437;SDS011;60444;43.534;-5.674;2022-12-20T12:32:32;9.37;;;3.10;;
72437;SDS011;60444;43.534;-5.674;2022-12-20T12:37:39;8.10;;;3.33;;
72437;SDS011;60444;43.534;-5.674;2022-12-20T12:46:00;5.45;;;1.95;;
72437;SDS011;60444;43.534;-5.674;2022-12-20T12:48:37;6.13;;;1.95;;
72437;SDS011;60444;43.534;-5.674;2022-12-20T12:51:06;7.43;;;2.20;;
72437;SDS011;60444;43.534;-5.674;2022-12-20T13:01:47;7.63;;;2.63;;
72437;SDS011;60444;43.534;-5.674;2022-12-20T13:04:27;7.13;;;2.10;;
72437;SDS011;60444;43.534;-5.674;2022-12-20T13:07:00;8.98;;;2.50;;
72437;SDS011;60444;43.534;-5.674;2022-12-20T13:11:57;9.93;;;3.25;;
72437;SDS011;60444;43.534;-5.674;2022-12-20T13:17:37;7.32;;;2.40;;
72437;SDS011;60444;43.534;-5.674;2022-12-20T13:19:49;6.10;;;2.15;;
72437;SDS011;60444;43.534;-5.674;2022-12-20T13:36:02;6.47;;;2.10;;
72437;SDS011;60444;43.534;-5.674;2022-12-20T13:38:52;8.18;;;1.80;;
72437;SDS011;60444;43.534;-5.674;2022-12-20T13:41:30;5.65;;;1.90;;
72437;SDS011;60444;43.534;-5.674;2022-12-20T13:44:09;6.77;;;1.87;;
72437;SDS011;60444;43.534;-5.674;2022-12-20T13:49:51;6.22;;;2.20;;
72437;SDS011;60444;43.534;-5.674;2022-12-20T13:52:24;8.63;;;1.57;;
72437;SDS011;60444;43.534;-5.674;2022-12-20T13:54:57;6.25;;;2.20;;
72437;SDS011;60444;43.534;-5.674;2022-12-20T13:57:27;4.80;;;1.60;;
72437;SDS011;60444;43.534;-5.674;2022-12-20T13:59:56;5.20;;;1.40;;
72437;SDS011;60444;43.534;-5.674;2022-12-20T14:02:27;6.57;;;1.85;;
72437;SDS011;60444;43.534;-5.674;2022-12-20T14:05:01;6.60;;;2.20;;
72437;SDS011;60444;43.534;-5.674;2022-12-20T14:07:32;8.13;;;2.30;;
72437;SDS011;60444;43.534;-5.674;2022-12-20T14:10:02;5.75;;;2.28;;
72437;SDS011;60444;43.534;-5.674;2022-12-20T14:12:29;7.60;;;2.00;;
72437;SDS011;60444;43.534;-5.674;2022-12-20T14:14:57;6.43;;;2.25;;
72437;SDS011;60444;43.534;-5.674;2022-12-20T14:17:30;6.33;;;2.13;;
72437;SDS011;60444;43.534;-5.674;2022-12-20T14:22:30;9.30;;;3.80;;
72437;SDS011;60444;43.534;-5.674;2022-12-20T14:24:56;10.80;;;4.07;;
72437;SDS011;60444;43.534;-5.674;2022-12-20T14:27:23;8.48;;;3.15;;
72437;SDS011;60444;43.534;-5.674;2022-12-20T14:29:53;8.33;;;2.53;;
72437;SDS011;60444;43.534;-5.674;2022-12-20T14:32:19;9.68;;;2.88;;
72437;SDS011;60444;43.534;-5.674;2022-12-20T14:34:45;9.43;;;3.47;;
72437;SDS011;60444;43.534;-5.674;2022-12-20T14:40:14;10.20;;;3.35;;
72437;SDS011;60444;43.534;-5.674;2022-12-20T14:42:44;7.78;;;2.65;;
72437;SDS011;60444;43.534;-5.674;2022-12-20T14:47:53;5.60;;;1.23;;
72437;SDS011;60444;43.534;-5.674;2022-12-20T14:50:32;4.60;;;1.30;;
72437;SDS011;60444;43.534;-5.674;2022-12-20T14:53:02;7.82;;;2.08;;
72437;SDS011;60444;43.534;-5.674;2022-12-20T14:55:36;7.20;;;1.67;;
72437;SDS011;60444;43.534;-5.674;2022-12-20T15:00:55;6.73;;;1.03;;
72437;SDS011;60444;43.534;-5.674;2022-12-20T15:03:26;9.43;;;1.10;;
72437;SDS011;60444;43.534;-5.674;2022-12-20T15:05:54;10.63;;;1.17;;
72437;SDS011;60444;43.534;-5.674;2022-12-20T15:08:27;8.25;;;1.10;;
72437;SDS011;60444;43.534;-5.674;2022-12-20T15:11:02;11.18;;;1.40;;
72437;SDS011;60444;43.534;-5.674;2022-12-20T15:16:18;8.40;;;1.10;;
72437;SDS011;60444;43.534;-5.674;2022-12-20T15:18:46;9.82;;;1.33;;
72437;SDS011;60444;43.534;-5.674;2022-12-20T15:21:35;8.18;;;1.20;;
72437;SDS011;60444;43.534;-5.674;2022-12-20T15:24:25;9.48;;;1.35;;
72437;SDS011;60444;43.534;-5.674;2022-12-20T15:26:52;7.57;;;0.90;;
72437;SDS011;60444;43.534;-5.674;2022-12-20T15:29:18;7.78;;;1.63;;
72437;SDS011;60444;43.534;-5.674;2022-12-20T15:31:45;7.60;;;1.15;;
72437;SDS011;60444;43.534;-5.674;2022-12-20T15:34:13;9.20;;;1.35;;
72437;SDS011;60444;43.534;-5.674;2022-12-20T15:36:42;4.73;;;0.90;;
72437;SDS011;60444;43.534;-5.674;2022-12-20T15:39:08;7.30;;;1.20;;
72437;SDS011;60444;43.534;-5.674;2022-12-20T15:41:36;9.35;;;1.20;;
72437;SDS011;60444;43.534;-5.674;2022-12-20T15:44:06;7.87;;;1.20;;
72437;SDS011;60444;43.534;-5.674;2022-12-20T15:46:54;10.18;;;1.00;;
72437;SDS011;60444;43.534;-5.674;2022-12-20T15:49:24;13.40;;;1.40;;
72437;SDS011;60444;43.534;-5.674;2022-12-20T15:51:53;7.22;;;1.00;;
72437;SDS011;60444;43.534;-5.674;2022-12-20T15:56:51;7.85;;;1.25;;
72437;SDS011;60444;43.534;-5.674;2022-12-20T15:59:17;7.22;;;1.10;;
72437;SDS011;60444;43.534;-5.674;2022-12-20T16:01:43;9.80;;;1.17;;
72437;SDS011;60444;43.534;-5.674;2022-12-20T16:04:11;8.97;;;1.20;;
72437;SDS011;60444;43.534;-5.674;2022-12-20T16:06:39;8.73;;;1.10;;
72437;SDS011;60444;43.534;-5.674;2022-12-20T16:09:04;7.40;;;1.15;;
72437;SDS011;60444;43.534;-5.674;2022-12-20T16:11:30;6.70;;;0.90;;
72437;SDS011;60444;43.534;-5.674;2022-12-20T16:13:56;5.30;;;0.97;;
72437;SDS011;60444;43.534;-5.674;2022-12-20T16:16:23;8.30;;;0.98;;
72437;SDS011;60444;43.534;-5.674;2022-12-20T16:18:53;7.60;;;1.23;;
72437;SDS011;60444;43.534;-5.674;2022-12-20T16:21:20;8.02;;;0.88;;
72437;SDS011;60444;43.534;-5.674;2022-12-20T16:23:51;10.07;;;1.13;;
72437;SDS011;60444;43.534;-5.674;2022-12-20T16:26:18;5.37;;;1.07;;
72437;SDS011;60444;43.534;-5.674;2022-12-20T16:28:46;7.93;;;0.88;;
72437;SDS011;60444;43.534;-5.674;2022-12-20T16:31:23;6.20;;;1.00;;
72437;SDS011;60444;43.534;-5.674;2022-12-20T16:33:50;5.05;;;0.90;;
72437;SDS011;60444;43.534;-5.674;2022-12-20T16:36:17;9.63;;;1.17;;
72437;SDS011;60444;43.534;-5.674;2022-12-20T16:38:42;8.83;;;1.27;;
72437;SDS011;60444;43.534;-5.674;2022-12-20T16:41:13;8.65;;;0.93;;
72437;SDS011;60444;43.534;-5.674;2022-12-20T16:43:43;3.67;;;0.68;;
72437;SDS011;60444;43.534;-5.674;2022-12-20T16:46:10;8.25;;;1.27;;
72437;SDS011;60444;43.534;-5.674;2022-12-20T16:48:38;5.30;;;0.73;;
72437;SDS011;60444;43.534;-5.674;2022-12-20T16:51:11;6.45;;;0.93;;
72437;SDS011;60444;43.534;-5.674;2022-12-20T16:53:42;7.18;;;0.85;;
72437;SDS011;60444;43.534;-5.674;2022-12-20T16:56:08;6.90;;;1.30;;
72437;SDS011;60444;43.534;-5.674;2022-12-20T16:58:34;5.00;;;0.90;;
72437;SDS011;60444;43.534;-5.674;2022-12-20T17:01:00;6.37;;;1.10;;